createdAt,value
2022-12-12T00:00:14.065Z,99904.78
2022-12-12T00:02:44.438Z,99909.94
2022-12-12T00:05:18.129Z,99908.22
2022-12-12T00:07:47.327Z,99904.84
2022-12-12T00:10:16.002Z,99704.97
2022-12-12T00:12:45.883Z,99694.59
2022-12-12T00:15:15.169Z,99922.22
2022-12-12T00:17:44.126Z,99910.09
2022-12-12T00:20:13.031Z,99909.25
2022-12-12T00:22:43.134Z,99909.22
2022-12-12T00:25:12.883Z,99903.28
2022-12-12T00:27:46.133Z,99912.72
2022-12-12T00:30:16.401Z,99917.91
2022-12-12T00:32:45.321Z,99919.59
2022-12-12T00:35:14.225Z,99918.75
2022-12-12T00:37:43.174Z,99912.66
2022-12-12T00:40:13.754Z,99671.03
2022-12-12T00:42:42.442Z,99909.19
2022-12-12T00:45:12.175Z,99912.66
2022-12-12T00:47:42.546Z,99913.53
2022-12-12T00:50:11.676Z,99870.75
2022-12-12T00:52:40.981Z,99911.88
2022-12-12T00:55:12.999Z,99914.47
2022-12-12T00:57:41.914Z,99918.84
2022-12-12T01:00:15.644Z,99882.19
2022-12-12T01:02:46.089Z,99924.03
2022-12-12T01:05:15.688Z,99924.75
2022-12-12T01:07:44.573Z,99901.03
2022-12-12T01:10:13.360Z,99931.56
2022-12-12T01:12:42.424Z,99941.97
2022-12-12T01:15:13.351Z,99824.16
2022-12-12T01:17:42.205Z,99931.50
2022-12-12T01:20:19.977Z,99935.75
2022-12-12T01:22:48.790Z,99932.16
2022-12-12T01:25:18.882Z,99924.53
2022-12-12T01:27:50.879Z,99922.00
2022-12-12T01:30:23.117Z,99824.06
2022-12-12T01:32:52.238Z,99923.56
2022-12-12T01:35:25.548Z,99767.25
2022-12-12T01:37:54.532Z,99925.41
2022-12-12T01:40:28.495Z,99797.84
2022-12-12T01:43:00.622Z,99712.22
2022-12-12T01:46:33.398Z,99933.09
2022-12-12T01:49:13.081Z,99936.50
2022-12-12T01:51:46.975Z,99936.50
2022-12-12T01:54:21.087Z,99587.63
2022-12-12T01:56:53.079Z,99870.13
2022-12-12T01:59:25.598Z,99614.38
2022-12-12T02:01:56.073Z,99932.91
2022-12-12T02:04:26.285Z,99928.63
2022-12-12T02:06:58.688Z,99935.66
2022-12-12T02:09:28.071Z,99935.53
2022-12-12T02:11:59.125Z,99726.06
2022-12-12T02:14:32.670Z,99863.09
2022-12-12T02:17:34.165Z,99934.69
2022-12-12T02:21:08.731Z,99617.84
2022-12-12T02:24:19.430Z,99624.91
2022-12-12T02:27:37.110Z,99735.59
2022-12-12T02:30:23.450Z,99843.13
2022-12-12T02:33:21.816Z,99924.34
2022-12-12T02:36:09.580Z,99883.25
2022-12-12T02:38:52.716Z,99818.75
2022-12-12T02:41:32.211Z,99795.19
2022-12-12T02:44:15.977Z,99609.50
2022-12-12T02:46:56.334Z,99774.25
2022-12-12T02:49:32.106Z,99924.44
2022-12-12T02:52:03.232Z,99816.03
2022-12-12T02:54:32.262Z,99926.19
2022-12-12T02:57:03.042Z,99920.16
2022-12-12T02:59:37.219Z,99866.81
2022-12-12T03:02:54.075Z,99927.94
2022-12-12T03:06:00.875Z,99921.81
2022-12-12T03:08:53.970Z,99928.72
2022-12-12T03:11:46.256Z,99810.19
2022-12-12T03:14:27.380Z,99929.69
2022-12-12T03:17:06.655Z,99924.53
2022-12-12T03:19:47.473Z,99668.91
2022-12-12T03:22:28.141Z,99918.44
2022-12-12T03:25:04.839Z,99696.81
2022-12-12T03:27:39.041Z,99850.41
2022-12-12T03:30:12.186Z,99922.81
2022-12-12T03:32:50.648Z,99919.34
2022-12-12T03:35:28.467Z,99755.28
2022-12-12T03:38:07.307Z,99865.31
2022-12-12T03:40:47.753Z,99915.88
2022-12-12T03:43:21.630Z,99902.84
2022-12-12T03:45:59.557Z,99898.41
2022-12-12T03:48:31.466Z,99921.94
2022-12-12T03:51:05.726Z,99910.69
2022-12-12T03:53:43.633Z,99670.81
2022-12-12T03:56:19.748Z,99894.16
2022-12-12T03:58:56.270Z,99922.00
2022-12-12T04:01:35.498Z,99619.97
2022-12-12T04:04:12.846Z,99901.84
2022-12-12T04:06:55.572Z,99771.94
2022-12-12T04:09:43.220Z,99643.56
2022-12-12T04:12:35.606Z,99900.19
2022-12-12T04:15:41.447Z,99856.50
2022-12-12T04:18:21.683Z,99922.66
2022-12-12T04:21:23.822Z,99885.22
2022-12-12T04:24:02.061Z,99865.22
2022-12-12T04:26:41.857Z,99839.16
2022-12-12T04:29:26.972Z,99887.00
2022-12-12T04:32:05.629Z,99676.81
2022-12-12T04:34:43.638Z,99916.50
2022-12-12T04:37:18.610Z,99901.88
2022-12-12T04:39:52.471Z,99844.25
2022-12-12T04:42:27.540Z,99796.34
2022-12-12T04:45:04.636Z,99921.06
2022-12-12T04:47:37.853Z,99900.22
2022-12-12T04:50:11.461Z,99904.44
2022-12-12T04:52:44.207Z,99928.13
2022-12-12T04:55:20.261Z,99821.53
2022-12-12T04:57:54.324Z,99928.84
2022-12-12T05:00:25.400Z,99867.66
2022-12-12T05:03:02.927Z,99623.47
2022-12-12T05:05:40.804Z,99835.38
2022-12-12T05:08:16.059Z,99791.75
2022-12-12T05:10:46.168Z,99880.94
2022-12-12T05:13:20.910Z,99927.25
2022-12-12T05:15:54.189Z,99910.44
2022-12-12T05:18:24.102Z,99899.91
2022-12-12T05:20:53.182Z,99937.50
2022-12-12T05:23:21.808Z,99940.03
2022-12-12T05:25:50.548Z,99937.50
2022-12-12T05:28:20.231Z,99809.16
2022-12-12T05:30:48.923Z,99946.34
2022-12-12T05:33:17.661Z,99946.41
2022-12-12T05:35:46.450Z,99950.63
2022-12-12T05:38:18.993Z,99943.75
2022-12-12T05:40:47.737Z,99946.41
2022-12-12T05:43:16.339Z,99940.25
2022-12-12T05:45:46.259Z,99942.06
2022-12-12T05:48:17.263Z,99937.69
2022-12-12T05:50:47.996Z,99953.28
2022-12-12T05:53:16.688Z,99955.91
2022-12-12T05:55:45.467Z,99954.97
2022-12-12T05:58:14.141Z,99967.09
2022-12-12T06:00:42.812Z,99967.09
2022-12-12T06:03:12.573Z,99971.59
2022-12-12T06:05:41.401Z,99964.69
2022-12-12T06:08:10.116Z,99954.19
2022-12-12T06:10:38.960Z,99967.19
2022-12-12T06:13:12.120Z,99964.56
2022-12-12T06:15:41.410Z,99962.81
2022-12-12T06:18:12.244Z,99963.72
2022-12-12T06:20:44.391Z,99974.16
2022-12-12T06:23:13.074Z,99966.34
2022-12-12T06:25:41.833Z,99973.28
2022-12-12T06:28:10.445Z,99972.38
2022-12-12T06:30:39.514Z,99968.97
2022-12-12T06:33:08.133Z,99969.84
2022-12-12T06:35:36.386Z,99967.34
2022-12-12T06:38:06.229Z,99973.38
2022-12-12T06:40:34.654Z,99982.03
2022-12-12T06:43:03.271Z,99979.44
2022-12-12T06:45:31.893Z,99973.41
2022-12-12T06:48:00.461Z,99975.16
2022-12-12T06:50:29.396Z,99973.50
2022-12-12T06:52:58.013Z,99981.34
2022-12-12T06:55:27.672Z,99905.34
2022-12-12T06:57:56.280Z,99986.53
2022-12-12T07:00:24.987Z,99978.72
2022-12-12T07:02:53.639Z,99988.31
2022-12-12T07:05:21.914Z,99936.84
2022-12-12T07:07:50.595Z,99987.53
2022-12-12T07:10:21.420Z,99956.94
2022-12-12T07:12:57.225Z,99993.56
2022-12-12T07:15:26.183Z,99995.34
2022-12-12T07:17:55.122Z,99994.50
2022-12-12T07:20:23.820Z,99998.84
2022-12-12T07:22:52.460Z,100000.59
2022-12-12T07:25:21.076Z,100003.09
2022-12-12T07:27:50.713Z,100010.00
2022-12-12T07:30:19.490Z,100011.75
2022-12-12T07:32:47.765Z,100018.69
2022-12-12T07:35:16.497Z,100021.28
2022-12-12T07:37:44.721Z,99984.63
2022-12-12T07:40:13.595Z,100018.72
2022-12-12T07:42:42.237Z,100019.59
2022-12-12T07:45:17.887Z,100011.63
2022-12-12T07:47:47.026Z,100021.41
2022-12-12T07:50:15.601Z,100018.75
2022-12-12T07:52:45.113Z,99979.44
2022-12-12T07:55:14.290Z,100015.34
2022-12-12T07:57:43.219Z,100016.22
2022-12-12T08:00:15.899Z,100013.66
2022-12-12T08:02:44.466Z,100018.06
2022-12-12T08:05:13.103Z,100013.72
2022-12-12T08:07:42.384Z,100016.38
2022-12-12T08:10:11.627Z,99996.28
2022-12-12T08:12:40.271Z,100028.59
2022-12-12T08:15:11.187Z,100033.00
2022-12-12T08:17:41.096Z,100034.78
2022-12-12T08:20:11.009Z,100040.03
2022-12-12T08:22:39.450Z,100039.16
2022-12-12T08:25:09.013Z,100016.38
2022-12-12T08:27:37.915Z,100040.00
2022-12-12T08:30:08.523Z,100042.72
2022-12-12T08:32:37.524Z,100041.03
2022-12-12T08:35:08.909Z,99984.41
2022-12-12T08:37:37.543Z,100043.78
2022-12-12T08:40:07.650Z,100037.72
2022-12-12T08:42:35.990Z,99958.31
2022-12-12T08:45:05.137Z,100037.06
2022-12-12T08:47:33.507Z,100009.19
2022-12-12T08:50:02.072Z,100041.53
2022-12-12T08:52:31.807Z,99994.41
2022-12-12T08:55:00.437Z,100036.44
2022-12-12T08:57:29.043Z,100046.06
2022-12-12T08:59:57.807Z,100042.69
2022-12-12T09:02:26.304Z,100047.13
2022-12-12T09:04:55.019Z,100045.47
2022-12-12T09:07:23.642Z,100050.78
2022-12-12T09:09:53.348Z,100006.25
2022-12-12T09:12:22.029Z,100058.63
2022-12-12T09:14:50.672Z,100057.88
2022-12-12T09:17:18.972Z,100057.91
2022-12-12T09:19:47.557Z,100064.91
2022-12-12T09:22:17.834Z,100058.94
2022-12-12T09:24:46.443Z,100063.34
2022-12-12T09:27:16.145Z,100067.66
2022-12-12T09:29:45.232Z,100070.28
2022-12-12T09:32:13.963Z,100064.22
2022-12-12T09:34:43.259Z,100066.81
2022-12-12T09:37:11.679Z,99969.97
2022-12-12T09:39:40.677Z,100074.72
2022-12-12T09:42:21.836Z,100017.03
2022-12-12T09:44:50.886Z,100075.56
2022-12-12T09:47:31.934Z,100073.06
2022-12-12T09:50:08.733Z,100078.28
2022-12-12T09:52:39.583Z,99940.31
2022-12-12T09:55:38.435Z,99948.13
2022-12-12T09:58:21.907Z,100090.25
2022-12-12T10:01:00.331Z,100077.09
2022-12-12T10:03:51.970Z,100088.50
2022-12-12T10:06:38.866Z,100085.94
2022-12-12T10:09:35.479Z,100037.91
2022-12-12T10:12:08.789Z,100090.31
2022-12-12T10:14:45.307Z,99995.06
2022-12-12T10:17:18.677Z,99985.56
2022-12-12T10:19:53.026Z,100093.75
2022-12-12T10:22:33.660Z,100086.69
2022-12-12T10:25:16.711Z,100026.44
2022-12-12T10:27:45.484Z,100082.28
2022-12-12T10:30:21.399Z,100038.72
2022-12-12T10:33:22.276Z,99995.88
2022-12-12T10:36:01.938Z,100042.97
2022-12-12T10:39:00.556Z,99996.81
2022-12-12T10:41:45.413Z,99959.25
2022-12-12T10:44:34.394Z,100097.13
2022-12-12T10:47:07.856Z,100096.34
2022-12-12T10:49:37.338Z,100099.78
2022-12-12T10:52:17.584Z,99949.59
2022-12-12T10:54:49.865Z,100094.63
2022-12-12T10:57:24.641Z,100096.47
2022-12-12T10:59:55.450Z,100096.56
2022-12-12T11:02:41.534Z,100059.00
2022-12-12T11:05:19.373Z,100106.22
2022-12-12T11:07:58.901Z,99992.91
2022-12-12T11:10:33.918Z,100103.69
2022-12-12T11:13:17.475Z,100088.88
2022-12-12T11:15:52.222Z,100107.13
2022-12-12T11:18:25.365Z,100052.91
2022-12-12T11:21:04.466Z,100098.34
2022-12-12T11:23:33.909Z,100097.50
2022-12-12T11:26:12.209Z,100052.03
2022-12-12T11:28:44.106Z,99950.91
2022-12-12T11:31:17.639Z,100102.75
2022-12-12T11:33:54.535Z,100099.25
2022-12-12T11:36:32.962Z,100100.19
2022-12-12T11:39:14.271Z,100098.44
2022-12-12T11:42:02.823Z,100097.56
2022-12-12T11:44:37.774Z,100090.53
2022-12-12T11:47:28.677Z,100101.91
2022-12-12T11:50:04.925Z,100064.28
2022-12-12T11:52:37.111Z,100118.31
2022-12-12T11:55:14.191Z,100106.16
2022-12-12T11:58:09.321Z,99963.81
2022-12-12T12:00:51.622Z,99921.84
2022-12-12T12:03:30.283Z,100119.97
2022-12-12T12:06:29.170Z,100089.56
2022-12-12T12:09:29.486Z,100104.47
2022-12-12T12:12:10.911Z,100105.41
2022-12-12T12:15:09.966Z,100091.44
2022-12-12T12:18:10.340Z,100101.88
2022-12-12T12:21:08.175Z,99988.28
2022-12-12T12:23:53.465Z,100085.13
2022-12-12T12:26:37.572Z,100050.25
2022-12-12T12:29:35.998Z,100058.97
2022-12-12T12:32:16.349Z,100106.09
2022-12-12T12:35:01.943Z,100099.09
2022-12-12T12:37:52.093Z,99981.28
2022-12-12T12:40:43.595Z,99993.47
2022-12-12T12:43:54.236Z,100099.94
2022-12-12T12:46:37.422Z,100114.69
2022-12-12T12:49:19.493Z,100027.38
2022-12-12T12:51:54.576Z,100125.09
2022-12-12T12:54:26.963Z,100117.25
2022-12-12T12:57:01.966Z,100070.88
2022-12-12T12:59:38.241Z,99967.72
2022-12-12T13:02:26.725Z,99960.53
2022-12-12T13:05:07.159Z,100125.53
2022-12-12T13:07:47.316Z,100128.16
2022-12-12T13:10:25.617Z,100123.75
2022-12-12T13:13:01.144Z,99863.38
2022-12-12T13:15:35.677Z,99907.84
2022-12-12T13:18:09.179Z,100133.06
2022-12-12T13:20:43.965Z,100134.78
2022-12-12T13:23:34.876Z,100144.34
2022-12-12T13:26:14.116Z,100151.16
2022-12-12T13:28:50.595Z,100147.53
2022-12-12T13:32:09.664Z,100146.53
2022-12-12T13:34:44.421Z,100151.56
2022-12-12T13:37:17.799Z,100148.91
2022-12-12T13:39:47.636Z,100147.88
2022-12-12T13:42:17.652Z,100150.34
2022-12-12T13:44:48.887Z,100089.97
2022-12-12T13:47:59.957Z,100157.16
2022-12-12T13:50:28.881Z,100156.19
2022-12-12T13:53:20.253Z,100140.34
2022-12-12T13:55:49.455Z,100168.19
2022-12-12T13:58:36.953Z,100169.72
2022-12-12T14:01:40.377Z,100171.31
2022-12-12T14:04:29.560Z,100178.03
2022-12-12T14:07:05.193Z,100114.81
2022-12-12T14:09:48.420Z,100163.72
2022-12-12T14:12:30.749Z,100195.03
2022-12-12T14:15:05.643Z,100197.59
2022-12-12T14:17:42.761Z,100184.13
2022-12-12T14:20:34.562Z,100205.78
2022-12-12T14:23:29.671Z,100194.22
2022-12-12T14:25:59.851Z,99988.66
2022-12-12T14:28:39.999Z,100200.31
2022-12-12T14:31:16.795Z,100194.81
2022-12-12T14:34:22.362Z,100201.47
2022-12-12T14:37:18.784Z,100212.72
2022-12-12T14:40:04.509Z,100161.97
2022-12-12T14:43:18.894Z,100167.25
2022-12-12T14:45:40.684Z,100207.84
2022-12-12T14:48:21.914Z,100042.38
2022-12-12T14:51:00.014Z,100044.09
2022-12-12T14:53:35.161Z,100155.88
2022-12-12T14:56:10.136Z,100187.00
2022-12-12T14:58:43.218Z,100149.91
2022-12-12T15:01:19.684Z,100212.00
2022-12-12T15:03:51.986Z,100118.94
2022-12-12T15:06:38.866Z,100217.06
2022-12-12T15:09:20.299Z,100227.91
2022-12-12T15:11:50.980Z,100232.22
2022-12-12T15:14:23.868Z,100227.81
2022-12-12T15:17:00.372Z,100237.09
2022-12-12T15:19:36.014Z,100180.19
2022-12-12T15:22:13.686Z,100243.97
2022-12-12T15:24:42.503Z,100228.72
2022-12-12T15:27:21.424Z,100227.19
2022-12-12T15:29:50.623Z,100233.34
2022-12-12T15:32:23.938Z,100162.41
2022-12-12T15:35:05.737Z,100072.69
2022-12-12T15:37:36.555Z,100240.78
2022-12-12T15:40:32.184Z,100236.34
2022-12-12T15:43:05.300Z,100251.16
2022-12-12T15:45:37.699Z,100250.31
2022-12-12T15:48:08.776Z,100251.19
2022-12-12T15:50:57.900Z,100088.56
2022-12-12T15:53:29.142Z,100246.88
2022-12-12T15:56:02.896Z,100153.00
2022-12-12T15:58:35.801Z,100223.28
2022-12-12T16:01:21.653Z,100259.25
2022-12-12T16:04:00.474Z,100260.78
2022-12-12T16:06:36.690Z,100170.56
2022-12-12T16:09:18.841Z,100203.00
2022-12-12T16:11:50.139Z,100033.19
2022-12-12T16:14:42.412Z,100266.94
2022-12-12T16:17:16.863Z,100271.31
2022-12-12T16:19:53.302Z,100269.63
2022-12-12T16:22:34.672Z,100161.00
2022-12-12T16:25:19.188Z,100279.09
2022-12-12T16:27:52.061Z,100208.03
2022-12-12T16:30:20.768Z,100287.81
2022-12-12T16:32:49.533Z,100284.47
2022-12-12T16:35:20.936Z,100292.16
2022-12-12T16:37:53.090Z,100295.59
2022-12-12T16:40:26.472Z,100283.47
2022-12-12T16:43:09.345Z,100216.56
2022-12-12T16:45:39.634Z,100297.28
2022-12-12T16:48:16.454Z,100291.25
2022-12-12T16:50:46.450Z,100290.38
2022-12-12T16:53:16.179Z,100292.13
2022-12-12T16:55:48.345Z,100293.84
2022-12-12T16:58:17.614Z,100299.13
2022-12-12T17:00:46.576Z,100307.56
2022-12-12T17:03:17.513Z,100297.16
2022-12-12T17:05:48.237Z,100309.41
2022-12-12T17:08:18.634Z,100313.78
2022-12-12T17:10:50.624Z,100290.03
2022-12-12T17:13:23.324Z,100286.44
2022-12-12T17:15:52.500Z,100320.84
2022-12-12T17:18:21.894Z,100310.28
2022-12-12T17:20:51.194Z,100313.66
2022-12-12T17:23:30.135Z,100313.59
2022-12-12T17:26:04.011Z,100317.03
2022-12-12T17:28:34.103Z,100316.13
2022-12-12T17:31:08.118Z,100308.16
2022-12-12T17:33:45.935Z,100315.31
2022-12-12T17:36:19.031Z,100303.81
2022-12-12T17:38:50.400Z,100265.34
2022-12-12T17:41:19.117Z,100329.09
2022-12-12T17:43:53.643Z,100331.75
2022-12-12T17:46:25.074Z,100326.63
2022-12-12T17:48:56.715Z,100321.34
2022-12-12T17:51:25.093Z,100327.41
2022-12-12T17:53:55.917Z,100301.22
2022-12-12T17:56:26.098Z,100266.03
2022-12-12T17:58:55.435Z,100333.50
2022-12-12T18:01:27.575Z,100254.69
2022-12-12T18:03:57.498Z,100270.19
2022-12-12T18:06:27.678Z,100254.44
2022-12-12T18:08:58.161Z,100338.72
2022-12-12T18:11:30.916Z,100332.44
2022-12-12T18:14:02.380Z,100307.00
2022-12-12T18:16:35.516Z,100333.31
2022-12-12T18:19:04.778Z,100330.00
2022-12-12T18:24:29.325Z,100292.88
2022-12-12T18:27:01.096Z,100334.13
2022-12-12T18:29:29.897Z,100340.34
2022-12-12T18:32:01.249Z,100345.50
2022-12-12T18:34:29.999Z,100345.59
2022-12-12T18:36:58.664Z,100345.59
2022-12-12T18:39:28.333Z,100342.88
2022-12-12T18:41:57.001Z,100344.59
2022-12-12T18:44:25.620Z,100342.88
2022-12-12T18:46:55.005Z,100345.53
2022-12-12T18:49:23.787Z,100349.91
2022-12-12T18:51:52.378Z,100358.44
2022-12-12T18:54:21.083Z,100356.69
2022-12-12T18:56:50.777Z,100334.78
2022-12-12T18:59:19.485Z,100361.00
2022-12-12T19:01:50.227Z,100346.34
2022-12-12T19:04:23.217Z,100348.06
2022-12-12T19:06:53.642Z,100343.75
2022-12-12T19:09:22.830Z,100348.03
2022-12-12T19:12:00.131Z,100342.75
2022-12-12T19:15:15.198Z,100349.72
2022-12-12T19:17:25.774Z,100348.13
2022-12-12T19:19:55.637Z,100345.47
2022-12-12T19:22:44.524Z,100338.50
2022-12-12T19:25:13.349Z,100348.09
2022-12-12T19:27:43.102Z,100206.09
2022-12-12T19:30:14.328Z,100339.31
2022-12-12T19:32:43.623Z,100340.16
2022-12-12T19:35:12.258Z,100350.44
2022-12-12T19:37:40.903Z,100350.34
2022-12-12T19:40:12.884Z,100359.91
2022-12-12T19:42:42.900Z,100357.44
2022-12-12T19:45:11.731Z,100347.66
2022-12-12T19:47:40.365Z,100364.28
2022-12-12T19:50:11.458Z,100278.22
2022-12-12T19:52:40.401Z,100360.81
2022-12-12T19:55:09.742Z,100368.59
2022-12-12T19:57:38.624Z,100372.19
2022-12-12T20:00:11.636Z,100378.16
2022-12-12T20:02:42.129Z,100363.31
2022-12-12T20:05:12.473Z,100367.00
2022-12-12T20:07:42.774Z,100369.59
2022-12-12T20:10:11.827Z,100371.28
2022-12-12T20:12:49.429Z,100372.03
2022-12-12T20:15:24.547Z,100371.16
2022-12-12T20:17:53.582Z,100355.38
2022-12-12T20:20:22.349Z,100379.78
2022-12-12T20:22:51.367Z,100382.31
2022-12-12T20:25:20.836Z,100387.56
2022-12-12T20:27:49.881Z,100386.59
2022-12-12T20:30:19.348Z,100388.25
2022-12-12T20:32:50.586Z,100389.28
2022-12-12T20:35:20.137Z,100394.47
2022-12-12T20:37:49.041Z,100398.06
2022-12-12T20:40:19.164Z,100342.59
2022-12-12T20:42:55.959Z,100396.91
2022-12-12T20:45:32.113Z,100396.00
2022-12-12T20:48:07.377Z,100373.06
2022-12-12T20:50:36.446Z,100399.41
2022-12-12T20:53:05.655Z,100402.75
2022-12-12T20:55:36.258Z,100403.50
2022-12-12T20:58:05.330Z,100406.78
2022-12-12T21:00:35.888Z,100403.19
2022-12-12T21:03:07.299Z,100371.38
2022-12-12T21:05:35.993Z,100402.94
2022-12-12T21:08:04.971Z,100396.91
2022-12-12T21:10:39.341Z,100332.31
2022-12-12T21:13:08.050Z,100406.41
2022-12-12T21:15:37.268Z,100407.13
2022-12-12T21:18:13.384Z,100305.59
2022-12-12T21:20:48.583Z,100407.38
2022-12-12T21:23:20.888Z,100403.75
2022-12-12T21:25:50.058Z,100401.00
2022-12-12T21:28:19.361Z,100404.25
2022-12-12T21:30:48.064Z,100396.22
2022-12-12T21:33:17.776Z,100398.38
2022-12-12T21:35:46.403Z,100403.56
2022-12-12T21:38:15.062Z,100397.44
2022-12-12T21:40:43.786Z,100402.50
2022-12-12T21:43:12.393Z,100399.84
2022-12-12T21:45:41.278Z,100404.84
2022-12-12T21:48:10.577Z,100407.34
2022-12-12T21:50:40.425Z,100405.69
2022-12-12T21:53:26.220Z,100403.81
2022-12-12T21:55:54.898Z,100406.22
2022-12-12T21:58:23.484Z,100407.78
2022-12-12T22:00:52.142Z,100404.13
2022-12-12T22:03:20.787Z,100410.00
2022-12-12T22:05:50.843Z,100408.34
2022-12-12T22:08:19.571Z,100412.72
2022-12-12T22:10:48.144Z,100411.06
2022-12-12T22:13:25.835Z,100410.34
2022-12-12T22:16:01.966Z,100414.88
2022-12-12T22:18:31.152Z,100386.22
2022-12-12T22:21:05.756Z,100412.63
2022-12-12T22:23:36.421Z,100420.50
2022-12-12T22:26:15.345Z,100417.38
2022-12-12T22:28:44.064Z,100376.41
2022-12-12T22:31:12.946Z,100410.09
2022-12-12T22:33:41.693Z,100404.38
2022-12-12T22:36:13.352Z,100324.63
2022-12-12T22:38:42.302Z,100414.44
2022-12-12T22:41:11.713Z,100414.69
2022-12-12T22:43:40.356Z,100417.47
2022-12-12T22:46:09.284Z,100418.53
2022-12-12T22:48:37.833Z,100401.38
2022-12-12T22:51:17.118Z,100187.63
2022-12-12T22:53:46.240Z,100414.16
2022-12-12T22:56:16.260Z,100415.16
2022-12-12T22:58:45.143Z,100420.44
2022-12-12T23:01:17.038Z,100382.84
2022-12-12T23:03:47.022Z,100418.94
2022-12-12T23:06:20.361Z,100340.00
2022-12-12T23:08:52.782Z,100397.16
2022-12-12T23:11:23.330Z,100424.44
2022-12-12T23:13:55.629Z,100418.47
2022-12-12T23:16:27.497Z,100421.16
2022-12-12T23:18:56.422Z,100416.94
2022-12-12T23:21:27.741Z,100376.72
2022-12-12T23:23:57.182Z,100406.72
2022-12-12T23:26:30.251Z,100404.13
2022-12-12T23:28:59.376Z,100407.72
2022-12-12T23:31:31.542Z,100407.72
2022-12-12T23:34:03.379Z,100394.78
2022-12-12T23:36:33.381Z,100342.00
2022-12-12T23:39:06.255Z,100400.88
2022-12-12T23:41:36.637Z,100396.63
2022-12-12T23:44:06.351Z,100400.94
2022-12-12T23:46:36.458Z,100382.63
2022-12-12T23:49:08.237Z,100289.69
2022-12-12T23:51:41.085Z,100398.34
2022-12-12T23:54:13.374Z,100395.00
2022-12-12T23:56:42.143Z,100403.03
2022-12-12T23:59:15.608Z,100405.47
